This is the latest recevied weather packets stored in our database for station/object DD3UTS-13. If no packets are shown the sender has not sent any weather packets the latest 1 day(s).
| Time | Temp. | Humidity | Pressure | Rain* | Wind** | Luminosity | Snow |
|---|---|---|---|---|---|---|---|
| 1778081132 | 19.44° C | 60% | 1005.1 hPa | 0 mm | - | 450 W/m² | - |
| 1778080232 | 18.89° C | 60% | 1005.1 hPa | 0 mm | - | 369 W/m² | - |
| 1778079632 | 18.89° C | 58% | 1004.9 hPa | 0 mm | - | 189 W/m² | - |
| 1778079332 | 18.89° C | 59% | 1004.8 hPa | 0 mm | - | 200 W/m² | - |
| 1778079032 | 18.89° C | 57% | 1004.8 hPa | 0 mm | - | 211 W/m² | - |
| 1778078732 | 18.33° C | 53% | 1004.8 hPa | 0 mm | - | 361 W/m² | - |
| 1778078432 | 18.33° C | 53% | 1004.8 hPa | 0 mm | - | 184 W/m² | - |
| 1778077532 | 19.44° C | 52% | 1004.8 hPa | 0 mm | - | 203 W/m² | - |
| 1778076932 | 19.44° C | 53% | 1004.9 hPa | 0 mm | - | 227 W/m² | - |
| 1778076632 | 20° C | 52% | 1004.9 hPa | 0 mm | - | 622 W/m² | - |
| 1778076332 | 19.44° C | 54% | 1005.1 hPa | 0 mm | - | 644 W/m² | - |
| 1778076032 | 19.44° C | 54% | 1005.1 hPa | 0 mm | - | 556 W/m² | - |
| 1778074532 | 19.44° C | 54% | 1005 hPa | 0 mm | - | 666 W/m² | - |
| 1778073932 | 20° C | 54% | 1005.2 hPa | 0 mm | - | 684 W/m² | - |
| 1778073032 | 18.33° C | 56% | 1005.2 hPa | 0 mm | - | 312 W/m² | - |
| 1778072132 | 18.89° C | 54% | 1005.2 hPa | 0 mm | - | 278 W/m² | - |
| 1778071832 | 18.89° C | 56% | 1005.3 hPa | 0 mm | - | 405 W/m² | - |
| 1778071232 | 18.33° C | 58% | 1005.5 hPa | 0 mm | - | 380 W/m² | - |
| 1778070932 | 18.33° C | 57% | 1005.4 hPa | 0 mm | - | 303 W/m² | - |
| 1778069732 | 18.89° C | 56% | 1005.5 hPa | 0 mm | - | 356 W/m² | - |
| 1778069432 | 18.89° C | 55% | 1005.4 hPa | 0 mm | - | 477 W/m² | - |
| 1778069132 | 18.89° C | 56% | 1005.4 hPa | 0 mm | - | 512 W/m² | - |
| 1778068832 | 18.89° C | 55% | 1005.4 hPa | 0 mm | - | 432 W/m² | - |
| 1778068532 | 19.44° C | 54% | 1005.4 hPa | 0 mm | - | 558 W/m² | - |
| 1778068232 | 19.44° C | 55% | 1005.4 hPa | 0 mm | - | 698 W/m² | - |
* Rain latest 24 hours (hover to see other rain measurements)
** Current wind speed in m/s (hover to see current wind gust speed)